createdAt,value
2018-11-29T00:00:16.624Z,90.3
2018-11-29T00:01:16.502Z,90.3
2018-11-29T00:02:16.374Z,90.5
2018-11-29T00:03:16.275Z,90.3
2018-11-29T00:04:16.181Z,90.3
2018-11-29T00:05:16.076Z,90.2
2018-11-29T00:06:15.948Z,90.3
2018-11-29T00:07:16.252Z,90
2018-11-29T00:08:16.134Z,90.2
2018-11-29T00:09:16.001Z,90.2
2018-11-29T00:10:15.915Z,90.2
2018-11-29T00:11:15.794Z,90.3
2018-11-29T00:12:15.674Z,90.3
2018-11-29T00:13:15.556Z,90.2
2018-11-29T00:14:15.432Z,90.1
2018-11-29T00:15:15.294Z,90.2
2018-11-29T00:16:15.202Z,90.2
2018-11-29T00:17:15.500Z,90.1
2018-11-29T00:18:15.381Z,90.1
2018-11-29T00:19:15.266Z,90
2018-11-29T00:20:25.586Z,90.1
2018-11-29T00:21:25.482Z,90
2018-11-29T00:22:25.374Z,90
2018-11-29T00:23:25.264Z,89.8
2018-11-29T00:24:25.192Z,90
2018-11-29T00:25:25.060Z,89.9
2018-11-29T00:26:24.946Z,90
2018-11-29T00:27:25.235Z,89.8
2018-11-29T00:28:25.131Z,89.7
2018-11-29T00:29:25.006Z,89.6
2018-11-29T00:30:24.885Z,90.2
2018-11-29T00:31:24.775Z,89.4
2018-11-29T00:32:24.655Z,89.3
2018-11-29T00:33:24.531Z,89.5
2018-11-29T00:34:24.433Z,89.4
2018-11-29T00:35:24.325Z,89.4
2018-11-29T00:36:24.223Z,89.6
2018-11-29T00:37:24.511Z,89.2
2018-11-29T00:38:24.392Z,89
2018-11-29T00:39:24.271Z,88.8
2018-11-29T00:40:24.160Z,88.7
2018-11-29T00:41:24.077Z,89
2018-11-29T00:42:23.948Z,88.7
2018-11-29T00:43:23.828Z,88.7
2018-11-29T00:44:23.694Z,89
2018-11-29T00:45:23.583Z,88.8
2018-11-29T00:46:23.474Z,88.7
2018-11-29T00:47:23.770Z,88.7
2018-11-29T00:48:23.659Z,88.7
2018-11-29T00:49:23.532Z,88.9
2018-11-29T00:50:23.426Z,88.8
2018-11-29T00:51:23.349Z,88.9
2018-11-29T00:52:23.267Z,89
2018-11-29T00:53:23.141Z,88.9
2018-11-29T00:54:23.019Z,88.9
2018-11-29T00:55:22.896Z,88.9
2018-11-29T00:56:22.776Z,88.8
2018-11-29T00:57:23.103Z,89
2018-11-29T00:58:23.004Z,88.7
2018-11-29T00:59:22.879Z,88.6
2018-11-29T01:00:22.777Z,88.7
2018-11-29T01:01:22.686Z,88.8
2018-11-29T01:02:22.587Z,88.5
2018-11-29T01:03:22.450Z,88.4
2018-11-29T01:04:22.317Z,88.5
2018-11-29T01:05:22.202Z,88.4
2018-11-29T01:06:22.091Z,88.9
2018-11-29T01:07:22.371Z,88.8
2018-11-29T01:08:22.241Z,88.9
2018-11-29T01:09:22.109Z,88.9
2018-11-29T01:10:22.002Z,89.3
2018-11-29T01:11:21.867Z,89
2018-11-29T01:12:21.737Z,88.5
2018-11-29T01:13:21.665Z,88.8
2018-11-29T01:14:21.531Z,88.9
2018-11-29T01:15:21.411Z,89
2018-11-29T01:16:21.288Z,89.3
2018-11-29T01:17:21.599Z,88.9
2018-11-29T01:18:21.482Z,89.2
2018-11-29T01:19:21.355Z,88.9
2018-11-29T01:20:21.235Z,88.4
2018-11-29T01:21:21.115Z,87.9
2018-11-29T01:22:20.983Z,87.9
2018-11-29T01:23:20.883Z,88.3
2018-11-29T01:24:20.765Z,88.2
2018-11-29T01:25:20.645Z,88.4
2018-11-29T01:26:20.531Z,88.1
2018-11-29T01:27:20.811Z,88
2018-11-29T01:28:20.696Z,88
2018-11-29T01:29:20.597Z,86.9
2018-11-29T01:37:18.931Z,84.3
2018-11-29T01:38:18.811Z,84.9
2018-11-29T01:39:18.719Z,85
2018-11-29T01:40:18.595Z,85.3
2018-11-29T01:41:18.514Z,85.8
2018-11-29T01:42:18.405Z,86.3
2018-11-29T01:43:18.282Z,86.9
2018-11-29T01:44:18.191Z,87.6
2018-11-29T01:45:18.086Z,87.8
2018-11-29T01:46:17.970Z,88
2018-11-29T01:47:18.262Z,87.9
2018-11-29T01:48:18.139Z,87.9
2018-11-29T01:49:18.031Z,88.1
2018-11-29T01:50:17.914Z,88.1
2018-11-29T01:51:17.810Z,88
2018-11-29T01:52:17.694Z,88.3
2018-11-29T01:53:17.594Z,88.1
2018-11-29T01:54:17.485Z,87.7
2018-11-29T01:55:17.362Z,88
2018-11-29T01:56:17.247Z,88.2
2018-11-29T01:57:17.518Z,88.3
2018-11-29T01:58:17.383Z,88
2018-11-29T01:59:17.270Z,87.9
2018-11-29T02:00:17.154Z,88
2018-11-29T02:01:17.030Z,88.1
2018-11-29T02:02:16.916Z,88.1
2018-11-29T02:03:16.804Z,88.3
2018-11-29T02:04:16.718Z,88.2
2018-11-29T02:05:16.596Z,87.8
2018-11-29T02:06:16.487Z,87.7
2018-11-29T02:07:16.782Z,87.2
2018-11-29T02:08:16.670Z,88
2018-11-29T02:09:16.566Z,87.8
2018-11-29T02:10:16.448Z,88.4
2018-11-29T02:11:16.338Z,88
2018-11-29T02:12:16.209Z,87.9
2018-11-29T02:13:16.088Z,88
2018-11-29T02:14:15.993Z,88
2018-11-29T02:15:15.916Z,88.1
2018-11-29T02:16:15.799Z,87.9
2018-11-29T02:17:16.105Z,87.5
2018-11-29T02:18:15.989Z,87.2
2018-11-29T02:19:15.897Z,87.2
2018-11-29T02:20:15.767Z,88
2018-11-29T02:21:15.649Z,87.5
2018-11-29T02:22:15.533Z,87.6
2018-11-29T02:23:15.413Z,88.3
2018-11-29T02:24:15.315Z,87.6
2018-11-29T02:25:15.182Z,87.6
2018-11-29T02:26:15.051Z,87.6
2018-11-29T02:27:15.318Z,87.8
2018-11-29T02:28:15.197Z,87.8
2018-11-29T02:29:15.103Z,87.5
2018-11-29T02:30:15.017Z,87.7
2018-11-29T02:31:14.940Z,87.4
2018-11-29T02:32:14.831Z,87.2
2018-11-29T02:33:14.715Z,87.2
2018-11-29T02:34:14.595Z,87.3
2018-11-29T02:35:14.497Z,87.4
2018-11-29T02:36:14.389Z,87.5
2018-11-29T02:37:14.696Z,87.8
2018-11-29T02:38:14.572Z,87.2
2018-11-29T02:47:12.685Z,84.1
2018-11-29T02:48:12.560Z,84.7
2018-11-29T02:49:12.464Z,84.7
2018-11-29T02:50:12.367Z,84.7
2018-11-29T02:51:12.246Z,84.9
2018-11-29T02:52:12.119Z,85
2018-11-29T02:53:11.990Z,85
2018-11-29T02:54:11.922Z,85.2
2018-11-29T02:55:11.865Z,85.6
2018-11-29T02:56:11.767Z,85.6
2018-11-29T02:57:12.054Z,85.8
2018-11-29T02:58:11.933Z,86
2018-11-29T02:59:11.810Z,86.3
2018-11-29T03:00:11.769Z,86.5
2018-11-29T03:01:11.649Z,86.7
2018-11-29T03:02:11.543Z,87
2018-11-29T03:03:11.431Z,87.4
2018-11-29T03:04:11.331Z,86.9
2018-11-29T03:05:11.266Z,86.7
2018-11-29T03:06:11.168Z,86.7
2018-11-29T03:07:11.461Z,86.5
2018-11-29T03:08:11.356Z,86.4
2018-11-29T03:09:11.243Z,85.8
2018-11-29T03:10:11.130Z,86.3
2018-11-29T03:11:11.052Z,86.9
2018-11-29T03:12:10.943Z,86.7
2018-11-29T03:13:10.817Z,86.7
2018-11-29T03:14:10.702Z,86.8
2018-11-29T03:15:10.570Z,87.1
2018-11-29T03:16:10.475Z,87.1
2018-11-29T03:17:10.797Z,87.2
2018-11-29T03:18:10.705Z,87.2
2018-11-29T03:19:10.584Z,87.2
2018-11-29T03:20:10.607Z,87.2
2018-11-29T03:21:10.528Z,87.2
2018-11-29T03:22:10.421Z,87.2
2018-11-29T03:23:10.313Z,87.4
2018-11-29T03:24:10.192Z,87.6
2018-11-29T03:25:10.086Z,88
2018-11-29T03:26:09.976Z,88.1
2018-11-29T03:27:10.315Z,88.1
2018-11-29T03:28:10.213Z,88
2018-11-29T03:29:10.109Z,87.9
2018-11-29T03:30:10.012Z,87.9
2018-11-29T03:31:09.922Z,87.8
2018-11-29T03:32:09.843Z,87.8
2018-11-29T03:33:09.780Z,87.8
2018-11-29T03:34:09.675Z,87.8
2018-11-29T03:35:09.575Z,87.5
2018-11-29T03:36:09.452Z,87.3
2018-11-29T03:37:09.777Z,87.7
2018-11-29T03:38:09.681Z,87.5
2018-11-29T03:39:09.572Z,87.5
2018-11-29T03:40:09.451Z,87.5
2018-11-29T03:41:09.331Z,87.6
2018-11-29T03:42:09.215Z,87.7
2018-11-29T03:43:09.127Z,87.7
2018-11-29T03:44:09.033Z,87.6
2018-11-29T03:45:08.915Z,87.6
2018-11-29T03:46:08.820Z,87.4
2018-11-29T03:47:09.145Z,86.6
2018-11-29T03:48:09.063Z,86.5
2018-11-29T03:49:08.945Z,86.7
2018-11-29T03:50:08.813Z,86.8
2018-11-29T03:51:08.711Z,86.4
2018-11-29T03:52:08.597Z,86.2
2018-11-29T03:53:08.501Z,86
2018-11-29T03:54:08.421Z,85.9
2018-11-29T03:55:08.307Z,86.3
2018-11-29T03:56:08.178Z,86.4
2018-11-29T03:57:08.473Z,86.5
2018-11-29T03:58:08.363Z,86.5
2018-11-29T03:59:08.239Z,86.6
2018-11-29T04:00:08.115Z,86.5
2018-11-29T04:01:08.017Z,86.5
2018-11-29T04:02:07.887Z,86.4
2018-11-29T04:03:07.801Z,86.3
2018-11-29T04:04:07.698Z,86
2018-11-29T04:05:07.588Z,86.1
2018-11-29T04:06:07.467Z,86.3
2018-11-29T04:07:07.780Z,86.1
2018-11-29T04:08:07.680Z,85.9
2018-11-29T04:09:07.548Z,86
2018-11-29T04:10:07.468Z,86.1
2018-11-29T04:11:07.390Z,86.2
2018-11-29T04:12:08.625Z,86.2
2018-11-29T04:13:08.558Z,86.1
2018-11-29T04:14:08.443Z,86.3
2018-11-29T04:15:08.377Z,86
2018-11-29T04:16:08.258Z,86
2018-11-29T04:17:08.549Z,85.5
2018-11-29T04:18:08.432Z,85.5
2018-11-29T04:19:08.351Z,85.1
2018-11-29T04:20:08.210Z,85
2018-11-29T04:21:08.092Z,84.7
2018-11-29T04:22:07.961Z,84.6
2018-11-29T04:23:07.854Z,84.7
2018-11-29T04:24:07.750Z,84.6
2018-11-29T04:25:07.639Z,84.7
2018-11-29T04:26:07.543Z,84.6
2018-11-29T04:27:07.887Z,84.2
2018-11-29T04:28:07.757Z,84.8
2018-11-29T04:29:07.672Z,85
2018-11-29T04:30:07.560Z,85
2018-11-29T04:31:07.446Z,84.9
2018-11-29T04:32:07.359Z,84.6
2018-11-29T04:33:07.266Z,84.6
2018-11-29T04:34:07.159Z,84.4
2018-11-29T04:35:07.070Z,84.4
2018-11-29T04:36:06.966Z,83.7
2018-11-29T04:37:07.254Z,83.6
2018-11-29T04:38:07.130Z,84.2
2018-11-29T04:39:07.014Z,83.4
2018-11-29T04:40:06.895Z,82.7
2018-11-29T04:41:06.778Z,82.9
2018-11-29T04:42:06.649Z,82.8
2018-11-29T04:43:06.540Z,82.1
2018-11-29T04:44:06.414Z,82.3
2018-11-29T04:45:06.318Z,82.4
2018-11-29T04:46:06.208Z,82.5
2018-11-29T04:47:06.520Z,82.8
2018-11-29T04:48:10.771Z,82.8
2018-11-29T04:49:10.687Z,82.9
2018-11-29T04:50:10.610Z,83
2018-11-29T04:51:10.577Z,82.8
2018-11-29T04:52:10.464Z,83
2018-11-29T04:53:10.356Z,82.9
2018-11-29T04:54:10.250Z,83.2
2018-11-29T04:55:10.161Z,83.3
2018-11-29T04:56:10.052Z,83.2
2018-11-29T04:57:10.344Z,83.6
2018-11-29T04:58:10.228Z,82.7
2018-11-29T04:59:10.120Z,82.2
2018-11-29T05:01:09.735Z,80.9
2018-11-29T05:07:08.716Z,78.5
2018-11-29T05:08:08.608Z,79.4
2018-11-29T05:09:08.492Z,78.9
2018-11-29T05:10:08.387Z,78.9
2018-11-29T05:11:08.266Z,79.4
2018-11-29T05:12:08.132Z,79.5
2018-11-29T05:13:08.031Z,79.8
2018-11-29T05:14:07.903Z,79.8
2018-11-29T05:15:07.800Z,80
2018-11-29T05:16:07.693Z,80.2
2018-11-29T05:17:08.007Z,80.4
2018-11-29T05:18:07.908Z,80.4
2018-11-29T05:19:07.804Z,80.7
2018-11-29T05:20:07.696Z,80.3
2018-11-29T05:21:07.620Z,79.9
2018-11-29T05:22:07.501Z,80.5
2018-11-29T05:23:07.395Z,80.7
2018-11-29T05:24:07.341Z,80.8
2018-11-29T05:25:07.236Z,80.9
2018-11-29T05:26:07.138Z,80.7
2018-11-29T05:27:07.434Z,81.2
2018-11-29T05:28:07.321Z,81.3
2018-11-29T05:29:07.190Z,81.3
2018-11-29T05:30:07.089Z,81.3
2018-11-29T05:31:06.985Z,81.4
2018-11-29T05:32:07.530Z,81.2
2018-11-29T05:33:07.410Z,81
2018-11-29T05:34:07.274Z,81.1
2018-11-29T05:35:07.158Z,81.1
2018-11-29T05:36:07.032Z,81.2
2018-11-29T05:37:07.328Z,81.2
2018-11-29T05:38:07.190Z,80.8
2018-11-29T05:39:07.074Z,81
2018-11-29T05:40:06.967Z,80.6
2018-11-29T05:41:06.837Z,80.8
2018-11-29T05:42:06.699Z,81
2018-11-29T05:43:06.601Z,81.2
2018-11-29T05:44:06.478Z,81.4
2018-11-29T05:45:06.384Z,81.1
2018-11-29T05:46:06.260Z,80.7
2018-11-29T05:47:06.546Z,80.9
2018-11-29T05:48:06.444Z,80.5
2018-11-29T05:49:06.327Z,80.4
2018-11-29T05:50:06.202Z,80.7
2018-11-29T05:51:06.088Z,80.9
2018-11-29T05:52:06.045Z,80.7
2018-11-29T05:53:05.922Z,80.3
2018-11-29T05:54:05.805Z,80.5
2018-11-29T05:55:05.664Z,80.3
2018-11-29T05:56:05.571Z,80.2
2018-11-29T05:57:05.853Z,80.3
2018-11-29T05:58:05.768Z,80.7
2018-11-29T05:59:05.642Z,80.3
2018-11-29T06:00:05.524Z,80.1
2018-11-29T06:01:05.429Z,80.1
2018-11-29T06:02:05.301Z,79.9
2018-11-29T06:03:05.188Z,80.1
2018-11-29T06:04:05.087Z,80.1
2018-11-29T06:05:04.971Z,79.8
2018-11-29T06:06:04.866Z,78.8
2018-11-29T06:07:05.145Z,78.7
2018-11-29T06:08:05.058Z,79
2018-11-29T06:09:04.953Z,78.2
2018-11-29T06:10:04.840Z,78.2
2018-11-29T06:17:03.507Z,76.1
2018-11-29T06:18:03.379Z,76.9
2018-11-29T06:19:03.303Z,77.2
2018-11-29T06:20:03.195Z,76.9
2018-11-29T06:21:03.077Z,77.3
2018-11-29T06:22:02.973Z,77.1
2018-11-29T06:23:02.868Z,77.4
2018-11-29T06:24:02.745Z,77.4
2018-11-29T06:25:02.658Z,77
2018-11-29T06:26:02.585Z,77.5
2018-11-29T06:27:02.879Z,77.5
2018-11-29T06:28:02.789Z,77.9
2018-11-29T06:29:02.687Z,77.9
2018-11-29T06:30:02.577Z,78.7
2018-11-29T06:31:02.473Z,79.3
2018-11-29T06:32:02.348Z,80.7
2018-11-29T06:33:02.225Z,80.1
2018-11-29T06:34:02.123Z,80.7
2018-11-29T06:35:02.014Z,81
2018-11-29T06:36:02.793Z,81.3
2018-11-29T06:37:03.145Z,81.4
2018-11-29T06:38:03.045Z,81.7
2018-11-29T06:39:02.939Z,81.8
2018-11-29T06:40:02.826Z,82
2018-11-29T06:41:02.729Z,82.1
2018-11-29T06:42:02.615Z,83.2
2018-11-29T06:43:02.494Z,82.8
2018-11-29T06:44:02.376Z,83
2018-11-29T06:45:02.256Z,83.2
2018-11-29T06:46:02.147Z,83.2
2018-11-29T06:47:02.449Z,83.1
2018-11-29T06:48:02.355Z,83.3
2018-11-29T06:49:02.233Z,83.4
2018-11-29T06:50:02.105Z,83.3
2018-11-29T06:51:02.009Z,83.4
2018-11-29T06:52:01.911Z,83.5
2018-11-29T06:53:01.810Z,83.4
2018-11-29T06:54:01.707Z,83.3
2018-11-29T06:55:01.593Z,83.2
2018-11-29T06:56:01.507Z,83.3
2018-11-29T06:57:01.824Z,83.7
2018-11-29T06:58:01.699Z,83.1
2018-11-29T06:59:01.595Z,83.6
2018-11-29T07:00:01.474Z,83.6
2018-11-29T07:01:01.375Z,83.7
2018-11-29T07:02:01.262Z,83.5
2018-11-29T07:03:01.152Z,83.5
2018-11-29T07:04:01.049Z,83.6
2018-11-29T07:05:00.943Z,83.6
2018-11-29T07:06:00.840Z,84.4
2018-11-29T07:07:01.123Z,83.8
2018-11-29T07:08:01.015Z,84.1
2018-11-29T07:09:00.906Z,84.1
2018-11-29T07:10:00.781Z,84.1
2018-11-29T07:11:00.676Z,84.1
2018-11-29T07:12:00.546Z,84
2018-11-29T07:13:00.427Z,84
2018-11-29T07:14:00.320Z,84
2018-11-29T07:15:00.228Z,84
2018-11-29T07:16:00.132Z,84
2018-11-29T07:17:00.484Z,83.9
2018-11-29T07:18:00.370Z,83.8
2018-11-29T07:19:00.267Z,83.1
2018-11-29T07:21:59.599Z,81.4
2018-11-29T07:22:59.468Z,80.9
2018-11-29T07:23:59.356Z,80.8
2018-11-29T07:25:58.988Z,79.5
2018-11-29T07:26:59.299Z,79.5
2018-11-29T07:27:59.177Z,80.2
2018-11-29T07:28:59.050Z,80.7
2018-11-29T07:29:58.932Z,80.9
2018-11-29T07:30:58.836Z,80.9
2018-11-29T07:31:58.714Z,81.1
2018-11-29T07:32:58.592Z,80.9
2018-11-29T07:33:58.488Z,80.9
2018-11-29T07:34:58.372Z,81.1
2018-11-29T07:35:58.278Z,81.6
2018-11-29T07:36:58.600Z,82
2018-11-29T07:37:58.498Z,81.6
2018-11-29T07:38:58.388Z,81
2018-11-29T07:39:58.280Z,81.5
2018-11-29T07:40:58.186Z,80.6
2018-11-29T07:42:57.808Z,79.7
2018-11-29T07:43:57.702Z,79.4
2018-11-29T07:44:57.594Z,79.2
2018-11-29T07:45:57.502Z,78.8
2018-11-29T07:46:57.822Z,78.7
2018-11-29T07:47:57.697Z,79.6
2018-11-29T07:48:57.572Z,79.7
2018-11-29T07:49:57.451Z,79.9
2018-11-29T07:50:57.348Z,79.9
2018-11-29T07:51:57.236Z,80
2018-11-29T07:52:57.124Z,80.1
2018-11-29T07:53:57.023Z,80.2
2018-11-29T07:54:56.899Z,80.3
2018-11-29T07:55:56.770Z,80.5
2018-11-29T07:56:57.072Z,80.8
2018-11-29T07:57:56.946Z,80.6
2018-11-29T07:58:56.820Z,80.5
2018-11-29T07:59:56.726Z,80.8
2018-11-29T08:01:56.378Z,79.9
2018-11-29T08:02:56.267Z,79.7
2018-11-29T08:03:56.168Z,79.5
2018-11-29T08:04:56.060Z,79.2
2018-11-29T08:05:55.962Z,79.8
2018-11-29T08:06:56.280Z,79.9
2018-11-29T08:07:56.170Z,80.4
2018-11-29T08:08:56.049Z,80.1
2018-11-29T08:09:55.949Z,79.7
2018-11-29T08:10:55.842Z,80
2018-11-29T08:11:55.746Z,80
2018-11-29T08:12:55.625Z,80.2
2018-11-29T08:13:55.512Z,80.4
2018-11-29T08:14:55.400Z,80.2
2018-11-29T08:15:55.281Z,80.3
2018-11-29T08:16:55.586Z,80.6
2018-11-29T08:17:55.472Z,80.9
2018-11-29T08:18:55.364Z,80.6
2018-11-29T08:19:55.322Z,81
2018-11-29T08:20:55.222Z,81.6
2018-11-29T08:21:55.098Z,81.2
2018-11-29T08:22:55.010Z,81.3
2018-11-29T08:23:54.892Z,81.1
2018-11-29T08:24:54.850Z,80.8
2018-11-29T08:25:54.818Z,80.8
2018-11-29T08:26:55.138Z,80.6
2018-11-29T08:27:55.039Z,80.4
2018-11-29T08:28:54.913Z,80.2
2018-11-29T08:29:54.786Z,80.2
2018-11-29T08:30:54.686Z,80.8
2018-11-29T08:31:54.567Z,80
2018-11-29T08:32:54.464Z,80.5
2018-11-29T08:33:54.350Z,81.3
2018-11-29T08:34:54.237Z,79.8
2018-11-29T08:35:54.122Z,80.3
2018-11-29T08:36:54.431Z,80.1
2018-11-29T08:37:54.338Z,80.3
2018-11-29T08:38:54.232Z,80.3
2018-11-29T08:39:54.112Z,80.5
2018-11-29T08:40:53.988Z,80.4
2018-11-29T08:41:53.868Z,80.4
2018-11-29T08:42:53.778Z,80.7
2018-11-29T08:43:53.660Z,80.4
2018-11-29T08:44:53.542Z,80.5
2018-11-29T08:45:53.465Z,80.1
2018-11-29T08:46:53.760Z,80.2
2018-11-29T08:47:53.659Z,80.3
2018-11-29T08:48:53.548Z,80.6
2018-11-29T08:49:53.440Z,80.5
2018-11-29T08:50:53.347Z,80.9
2018-11-29T08:51:53.240Z,81.4
2018-11-29T08:52:53.133Z,81.6
2018-11-29T08:53:53.073Z,81.7
2018-11-29T08:54:52.955Z,81.8
2018-11-29T08:55:52.836Z,82
2018-11-29T08:56:53.126Z,82.5
2018-11-29T08:57:53.011Z,82.9
2018-11-29T08:58:52.922Z,83.2
2018-11-29T08:59:52.793Z,83.6
2018-11-29T09:00:52.681Z,83.5
2018-11-29T09:01:52.574Z,83.5
2018-11-29T09:02:52.457Z,83.2
2018-11-29T09:03:52.314Z,83.2
2018-11-29T09:04:52.200Z,83.5
2018-11-29T09:05:52.128Z,83.1
2018-11-29T09:06:52.453Z,83.5
2018-11-29T09:07:52.359Z,83.2
2018-11-29T09:08:52.248Z,83.2
2018-11-29T09:09:52.148Z,83.4
2018-11-29T09:10:52.048Z,83.2
2018-11-29T09:11:51.930Z,83.2
2018-11-29T09:12:51.821Z,82.8
2018-11-29T09:13:51.720Z,82.8
2018-11-29T09:14:51.623Z,82.8
2018-11-29T09:15:51.526Z,82.6
2018-11-29T09:16:51.913Z,82.6
2018-11-29T09:17:51.899Z,82.6
2018-11-29T09:18:51.794Z,82.8
2018-11-29T09:19:51.670Z,82.9
2018-11-29T09:20:51.577Z,82.7
2018-11-29T09:21:51.466Z,82.3
2018-11-29T09:22:51.361Z,82.5
2018-11-29T09:23:51.258Z,82.8
2018-11-29T09:24:51.151Z,82.7
2018-11-29T09:25:51.075Z,83.4
2018-11-29T09:26:51.408Z,82.9
2018-11-29T09:27:51.295Z,83.1
2018-11-29T09:28:51.172Z,83.5
2018-11-29T09:29:51.041Z,83.4
2018-11-29T09:30:50.947Z,82.9
2018-11-29T09:31:50.847Z,82
2018-11-29T09:32:50.747Z,81.6
2018-11-29T09:33:50.713Z,81
2018-11-29T09:34:50.628Z,80.9
2018-11-29T09:35:50.617Z,80.9
2018-11-29T09:36:51.905Z,81.5
2018-11-29T09:37:51.795Z,81.6
2018-11-29T09:38:51.702Z,81.4
2018-11-29T09:39:51.581Z,81.2
2018-11-29T09:40:51.481Z,81.4
2018-11-29T09:41:51.370Z,81.1
2018-11-29T09:42:51.243Z,80.5
2018-11-29T09:43:51.130Z,80.8
2018-11-29T09:44:51.085Z,80.8
2018-11-29T09:45:50.976Z,80.8
2018-11-29T09:46:51.294Z,80.3
2018-11-29T09:47:51.189Z,80.8
2018-11-29T09:48:51.118Z,81.1
2018-11-29T09:49:51.023Z,81.3
2018-11-29T09:50:50.940Z,81.5
2018-11-29T09:51:50.837Z,81
2018-11-29T09:52:50.730Z,81.2
2018-11-29T09:53:50.614Z,80.9
2018-11-29T09:54:50.499Z,81
2018-11-29T09:55:50.405Z,81
2018-11-29T09:56:50.721Z,80.8
2018-11-29T09:57:50.619Z,81
2018-11-29T09:58:50.496Z,80.8
2018-11-29T09:59:50.382Z,80.7
2018-11-29T10:00:50.285Z,80.3
2018-11-29T10:01:50.179Z,80.1
2018-11-29T10:02:50.080Z,79.9
2018-11-29T10:03:49.978Z,80.1
2018-11-29T10:04:49.866Z,79.6
2018-11-29T10:05:49.794Z,80
2018-11-29T10:06:50.114Z,79.8
2018-11-29T10:07:49.997Z,80.1
2018-11-29T10:08:49.881Z,80.1
2018-11-29T10:09:49.776Z,80
2018-11-29T10:10:49.686Z,79.7
2018-11-29T10:11:49.590Z,79.3
2018-11-29T10:12:49.482Z,79.2
2018-11-29T10:13:49.379Z,79.2
2018-11-29T10:14:49.252Z,79.1
2018-11-29T10:15:49.174Z,79.2
2018-11-29T10:16:49.488Z,78.9
2018-11-29T10:17:49.380Z,79.6
2018-11-29T10:18:49.277Z,79.7
2018-11-29T10:19:49.166Z,79.2
2018-11-29T10:20:49.038Z,78.5
2018-11-29T10:21:48.946Z,78.1
2018-11-29T10:22:48.814Z,78
2018-11-29T10:23:48.700Z,77.8
2018-11-29T10:24:48.594Z,77.9
2018-11-29T10:25:48.484Z,77.8
2018-11-29T10:26:48.840Z,78.4
2018-11-29T10:27:48.730Z,78.3
2018-11-29T10:28:48.738Z,78.9
2018-11-29T10:29:48.618Z,79.2
2018-11-29T10:30:48.496Z,79.5
2018-11-29T10:31:48.368Z,79.7
2018-11-29T10:32:48.258Z,80.1
2018-11-29T10:33:48.156Z,80.1
2018-11-29T10:34:48.038Z,80.2
2018-11-29T10:35:47.923Z,80.1
2018-11-29T10:36:48.216Z,80.1
2018-11-29T10:37:48.135Z,80
2018-11-29T10:38:48.021Z,80.2
2018-11-29T10:39:47.909Z,80.1
2018-11-29T10:40:47.820Z,80.5
2018-11-29T10:41:47.720Z,80.3
2018-11-29T10:42:47.626Z,80.3
2018-11-29T10:43:47.543Z,80.6
2018-11-29T10:44:47.417Z,80.4
2018-11-29T10:45:47.316Z,80.6
2018-11-29T10:46:47.658Z,80
2018-11-29T10:47:53.329Z,79.8
2018-11-29T10:48:53.252Z,79.3
2018-11-29T10:49:53.158Z,78.9
2018-11-29T10:50:53.040Z,78.6
2018-11-29T10:51:52.915Z,78.5
2018-11-29T10:52:52.794Z,77.7
2018-11-29T10:53:52.700Z,76.5
2018-11-29T10:54:52.651Z,76.7
2018-11-29T10:55:52.534Z,77
2018-11-29T10:56:52.924Z,76
2018-11-29T10:57:52.822Z,77.1
2018-11-29T10:58:52.806Z,76.9
2018-11-29T10:59:52.703Z,76.5
2018-11-29T11:00:52.585Z,76.8
2018-11-29T11:01:52.483Z,76.1
2018-11-29T11:02:52.377Z,76.3
2018-11-29T11:03:52.297Z,76.1
2018-11-29T11:04:52.201Z,75.8
2018-11-29T11:05:52.098Z,76
2018-11-29T11:06:52.403Z,77.1
2018-11-29T11:07:52.290Z,76.5
2018-11-29T11:08:52.189Z,76.9
2018-11-29T11:09:52.078Z,76.9
2018-11-29T11:10:51.955Z,77.3
2018-11-29T11:11:51.838Z,77.7
2018-11-29T11:12:51.734Z,77.8
2018-11-29T11:13:51.640Z,78.1
2018-11-29T11:14:51.601Z,77.8
2018-11-29T11:15:51.484Z,78
2018-11-29T11:16:51.789Z,78.3
2018-11-29T11:17:51.673Z,78.5
2018-11-29T11:18:51.586Z,78.7
2018-11-29T11:19:51.479Z,78.8
2018-11-29T11:20:51.378Z,79.1
2018-11-29T11:21:51.272Z,79.6
2018-11-29T11:22:51.179Z,79.8
2018-11-29T11:23:51.095Z,79.7
2018-11-29T11:24:51.037Z,80.9
2018-11-29T11:25:50.947Z,80.2
2018-11-29T11:26:51.282Z,80
2018-11-29T11:27:51.172Z,80.3
2018-11-29T11:28:51.083Z,80.5
2018-11-29T11:29:51.013Z,80.3
2018-11-29T11:30:50.907Z,80.7
2018-11-29T11:31:50.795Z,80.7
2018-11-29T11:32:50.762Z,80.4
2018-11-29T11:33:50.675Z,80.3
2018-11-29T11:34:50.561Z,80.3
2018-11-29T11:35:50.479Z,80.5
2018-11-29T11:36:50.795Z,80
2018-11-29T11:37:50.683Z,80.7
2018-11-29T11:38:50.726Z,80.9
2018-11-29T11:39:50.617Z,81
2018-11-29T11:40:50.499Z,81.2
2018-11-29T11:41:50.475Z,81.5
2018-11-29T11:42:50.363Z,81.6
2018-11-29T11:43:50.265Z,81.7
2018-11-29T11:44:50.154Z,81.6
2018-11-29T11:45:50.057Z,81.9
2018-11-29T11:46:50.375Z,82
2018-11-29T11:47:50.272Z,82
2018-11-29T11:48:50.194Z,81.8
2018-11-29T11:49:50.079Z,82
2018-11-29T11:50:49.990Z,81.9
2018-11-29T11:51:49.913Z,82
2018-11-29T11:52:49.837Z,81.9
2018-11-29T11:53:49.749Z,81.9
2018-11-29T11:54:49.638Z,82
2018-11-29T11:55:54.928Z,82.3
2018-11-29T11:56:55.510Z,82.1
2018-11-29T11:57:55.381Z,82
2018-11-29T11:58:55.273Z,81.8
2018-11-29T11:59:55.150Z,81.6
2018-11-29T12:00:55.041Z,81.5
2018-11-29T12:01:54.935Z,81.5
2018-11-29T12:02:54.827Z,81.2
2018-11-29T12:03:54.733Z,81.4
2018-11-29T12:04:54.614Z,81
2018-11-29T12:05:54.485Z,81.4
2018-11-29T12:06:54.795Z,81
2018-11-29T12:07:54.678Z,80.8
2018-11-29T12:08:54.604Z,80.9
2018-11-29T12:09:54.525Z,80.3
2018-11-29T12:10:54.418Z,80.7
2018-11-29T12:11:54.297Z,80.3
2018-11-29T12:12:54.220Z,80
2018-11-29T12:13:54.116Z,79.7
2018-11-29T12:14:54.004Z,79.2
2018-11-29T12:15:53.874Z,79.3
2018-11-29T12:16:54.176Z,79.1
2018-11-29T12:17:54.047Z,79.2
2018-11-29T12:18:53.960Z,78
2018-11-29T12:19:53.850Z,78.4
2018-11-29T12:20:54.767Z,78.2
2018-11-29T12:21:54.676Z,78
2018-11-29T12:22:54.582Z,77.9
2018-11-29T12:23:54.495Z,78
2018-11-29T12:24:54.398Z,78.3
2018-11-29T12:25:54.302Z,77.9
2018-11-29T12:26:54.638Z,77.9
2018-11-29T12:27:54.530Z,78
2018-11-29T12:28:54.464Z,78.1
2018-11-29T12:29:54.368Z,77.4
2018-11-29T12:30:54.262Z,77.5
2018-11-29T12:31:54.134Z,77.4
2018-11-29T12:32:54.020Z,76.5
2018-11-29T12:33:53.934Z,76.9
2018-11-29T12:34:53.821Z,77.1
2018-11-29T12:35:53.736Z,77.4
2018-11-29T12:36:54.051Z,77.8
2018-11-29T12:37:54.007Z,78.1
2018-11-29T12:38:53.931Z,78.3
2018-11-29T12:39:53.814Z,78.6
2018-11-29T12:40:53.773Z,78.9
2018-11-29T12:41:53.683Z,78.7
2018-11-29T12:42:53.558Z,78.6
2018-11-29T12:43:53.476Z,78.6
2018-11-29T12:44:53.364Z,78.9
2018-11-29T12:45:53.252Z,79.9
2018-11-29T12:46:53.576Z,79.5
2018-11-29T12:47:53.494Z,79.8
2018-11-29T12:48:53.402Z,79.9
2018-11-29T12:49:53.302Z,79.8
2018-11-29T12:50:53.212Z,79.6
2018-11-29T12:51:53.144Z,79.7
2018-11-29T12:52:53.040Z,79.5
2018-11-29T12:53:52.952Z,79.5
2018-11-29T12:54:52.947Z,79.3
2018-11-29T12:55:52.862Z,79.5
2018-11-29T12:56:53.182Z,79.8
2018-11-29T13:00:05.974Z,80.1
2018-11-29T13:01:01.309Z,79.8
2018-11-29T13:03:56.157Z,79.6
2018-11-29T13:06:51.008Z,80.3
2018-11-29T13:09:45.852Z,79.7
2018-11-29T13:12:40.703Z,80.2
2018-11-29T13:15:35.705Z,80.5
2018-11-29T13:18:30.418Z,80.7
2018-11-29T13:21:25.240Z,81
2018-11-29T13:24:20.087Z,81.2
2018-11-29T13:27:14.904Z,81.7
2018-11-29T13:30:09.762Z,81.9
2018-11-29T13:33:04.597Z,81.3
2018-11-29T13:35:59.414Z,82.2
2018-11-29T13:38:54.516Z,81.9
2018-11-29T13:41:49.096Z,81.6
2018-11-29T13:44:43.935Z,81.6
2018-11-29T13:47:38.765Z,81.7
2018-11-29T13:50:33.608Z,81.8
2018-11-29T13:53:28.468Z,82.1
2018-11-29T13:56:23.313Z,82.2
2018-11-29T13:59:18.169Z,82
2018-11-29T14:02:13.007Z,81.7
2018-11-29T14:05:07.868Z,81.9
2018-11-29T14:08:02.699Z,82.2
2018-11-29T14:10:57.518Z,82.3
2018-11-29T14:13:52.351Z,82.3
2018-11-29T14:16:47.152Z,82.5
2018-11-29T14:19:41.999Z,82.5
2018-11-29T14:22:36.773Z,83
2018-11-29T14:25:31.631Z,83.4
2018-11-29T14:28:26.419Z,83.8
2018-11-29T14:31:21.223Z,83.9
2018-11-29T14:34:16.025Z,84.1
2018-11-29T14:37:10.835Z,84.1
2018-11-29T14:40:05.641Z,84
2018-11-29T14:43:00.443Z,84.1
2018-11-29T14:45:55.247Z,84.1
2018-11-29T14:48:50.054Z,84.6
2018-11-29T14:51:48.595Z,84.8
2018-11-29T14:54:39.656Z,85.1
2018-11-29T14:57:34.457Z,85.6
2018-11-29T15:00:29.240Z,86.2
2018-11-29T15:03:23.992Z,86
2018-11-29T15:06:18.741Z,85.9
2018-11-29T15:09:13.511Z,85.9
2018-11-29T15:12:08.274Z,85.9
2018-11-29T15:15:03.037Z,85.9
2018-11-29T15:17:57.783Z,86.4
2018-11-29T15:20:52.549Z,86.4
2018-11-29T15:23:47.293Z,86.8
2018-11-29T15:26:42.053Z,87
2018-11-29T15:29:36.791Z,86.9
2018-11-29T15:32:31.839Z,87
2018-11-29T15:35:26.561Z,87.2
2018-11-29T15:38:21.017Z,87.4
2018-11-29T15:41:18.719Z,87.5
2018-11-29T15:44:10.438Z,87.8
2018-11-29T15:47:05.138Z,87.6
2018-11-29T15:49:59.861Z,87.7